TimeEST,TemperatureF,Dew PointF,Humidity,Sea Level PressureIn,VisibilityMPH,Wind Direction,Wind SpeedMPH,Gust SpeedMPH,PrecipitationIn,Events,Conditions,WindDirDegrees,DateUTC
12:13 AM,33.1,27.9,81,30.00,10.0,East,4.6,-,N/A,,Scattered Clouds,80,2012-11-07 05:13:00
12:33 AM,32.4,27.3,82,30.01,10.0,East,3.5,-,N/A,,Clear,80,2012-11-07 05:33:00
12:53 AM,32.0,27.1,82,30.00,10.0,East,3.5,-,N/A,,Clear,80,2012-11-07 05:53:00
1:13 AM,31.8,27.0,82,30.00,10.0,Calm,Calm,-,N/A,,Scattered Clouds,0,2012-11-07 06:13:00
1:33 AM,31.1,26.2,82,30.00,10.0,ENE,3.5,-,N/A,,Scattered Clouds,70,2012-11-07 06:33:00
1:53 AM,31.3,25.7,80,30.00,10.0,Calm,Calm,-,N/A,,Clear,0,2012-11-07 06:53:00
2:13 AM,29.8,25.5,84,30.01,10.0,Calm,Calm,-,N/A,,Clear,0,2012-11-07 07:13:00
2:33 AM,30.0,25.7,84,30.01,10.0,Calm,Calm,-,N/A,,Clear,0,2012-11-07 07:33:00
2:53 AM,28.6,25.0,86,30.01,10.0,Calm,Calm,-,N/A,,Scattered Clouds,0,2012-11-07 07:53:00
3:13 AM,28.2,26.1,92,30.01,10.0,Calm,Calm,-,N/A,,Overcast,0,2012-11-07 08:13:00
3:53 AM,28.4,27.0,94,30.01,10.0,Calm,Calm,-,N/A,,Mostly Cloudy,0,2012-11-07 08:53:00
4:13 AM,30.2,26.8,87,30.01,10.0,ENE,3.5,-,N/A,,Scattered Clouds,60,2012-11-07 09:13:00
4:33 AM,30.9,27.3,86,30.02,10.0,East,3.5,-,N/A,,Clear,80,2012-11-07 09:33:00
4:53 AM,31.1,27.5,87,30.02,10.0,ENE,4.6,-,N/A,,Clear,70,2012-11-07 09:53:00
5:13 AM,31.1,28.0,88,30.02,10.0,ENE,3.5,-,N/A,,Clear,60,2012-11-07 10:13:00
5:33 AM,30.9,28.6,91,30.02,10.0,NE,3.5,-,N/A,,Clear,50,2012-11-07 10:33:00
5:53 AM,29.1,29.1,100,30.03,10.0,NE,3.5,-,N/A,,Clear,50,2012-11-07 10:53:00
6:13 AM,28.4,28.4,100,30.03,10.0,NNE,3.5,-,N/A,,Clear,20,2012-11-07 11:13:00
6:33 AM,27.7,27.7,100,30.03,10.0,NNE,4.6,-,N/A,,Clear,20,2012-11-07 11:33:00
6:53 AM,26.6,26.6,100,30.03,7.0,NNE,3.5,-,N/A,,Clear,20,2012-11-07 11:53:00
7:13 AM,28.0,28.0,100,30.03,7.0,North,4.6,-,N/A,,Clear,10,2012-11-07 12:13:00
7:33 AM,26.6,26.6,100,30.03,5.0,North,3.5,-,N/A,,Clear,360,2012-11-07 12:33:00
7:53 AM,26.8,26.8,100,30.04,4.0,North,-9999.0,-,N/A,,Clear,0,2012-11-07 12:53:00
8:13 AM,29.8,29.8,100,30.04,4.0,North,-9999.0,-,N/A,,Clear,0,2012-11-07 13:13:00
8:33 AM,31.8,31.8,100,30.05,5.0,Calm,Calm,-,N/A,,Clear,0,2012-11-07 13:33:00
8:53 AM,33.8,33.8,100,30.05,7.0,Calm,Calm,-,N/A,,Clear,0,2012-11-07 13:53:00
9:13 AM,35.8,34.7,96,30.05,10.0,NE,3.5,-,N/A,,Clear,50,2012-11-07 14:13:00
9:33 AM,37.4,35.4,93,30.05,10.0,ENE,5.8,-,N/A,,Clear,70,2012-11-07 14:33:00
9:53 AM,38.8,34.7,85,30.06,10.0,East,4.6,-,N/A,,Clear,80,2012-11-07 14:53:00
10:13 AM,39.4,32.0,75,30.07,10.0,East,5.8,-,N/A,,Clear,80,2012-11-07 15:13:00
10:34 AM,40.5,32.0,72,30.08,10.0,East,6.9,-,N/A,,Clear,100,2012-11-07 15:34:00
10:53 AM,41.4,32.0,69,30.09,10.0,ENE,6.9,-,N/A,,Clear,70,2012-11-07 15:53:00
11:13 AM,42.3,31.1,65,30.09,10.0,East,4.6,-,N/A,,Clear,100,2012-11-07 16:13:00
11:34 AM,42.4,30.9,64,30.08,10.0,East,5.8,-,N/A,,Clear,80,2012-11-07 16:34:00
11:53 AM,43.3,30.4,60,30.08,10.0,ESE,4.6,-,N/A,,Clear,110,2012-11-07 16:53:00
12:13 PM,44.4,30.0,57,30.07,10.0,ESE,4.6,-,N/A,,Scattered Clouds,110,2012-11-07 17:13:00
12:33 PM,44.6,28.6,53,30.07,10.0,ENE,4.6,-,N/A,,Scattered Clouds,60,2012-11-07 17:33:00
12:53 PM,44.6,27.9,52,30.06,10.0,ENE,3.5,-,N/A,,Clear,70,2012-11-07 17:53:00
1:13 PM,45.5,27.7,50,30.06,10.0,NE,5.8,-,N/A,,Clear,40,2012-11-07 18:13:00
1:33 PM,45.1,26.6,48,30.06,10.0,Calm,Calm,-,N/A,,Clear,0,2012-11-07 18:33:00
1:53 PM,45.7,27.1,48,30.05,10.0,ENE,4.6,-,N/A,,Clear,60,2012-11-07 18:53:00
2:13 PM,45.7,27.1,48,30.05,10.0,NE,5.8,-,N/A,,Clear,40,2012-11-07 19:13:00
2:33 PM,45.9,27.5,49,30.05,10.0,NE,5.8,-,N/A,,Clear,40,2012-11-07 19:33:00
2:53 PM,45.7,28.2,51,30.05,10.0,NNE,5.8,-,N/A,,Clear,30,2012-11-07 19:53:00
3:13 PM,45.5,28.2,51,30.05,10.0,ENE,4.6,-,N/A,,Clear,60,2012-11-07 20:13:00
3:33 PM,45.0,28.8,53,30.06,10.0,ENE,4.6,-,N/A,,Clear,60,2012-11-07 20:33:00
3:53 PM,44.6,29.1,55,30.07,10.0,NE,6.9,-,N/A,,Clear,40,2012-11-07 20:53:00
4:13 PM,44.1,28.8,55,30.07,10.0,ENE,5.8,-,N/A,,Clear,60,2012-11-07 21:13:00
4:38 PM,43.2,29.8,59,30.08,10.0,ENE,5.8,-,N/A,,Clear,60,2012-11-07 21:38:00
4:53 PM,42.1,30.2,63,30.08,10.0,ENE,3.5,-,N/A,,Clear,60,2012-11-07 21:53:00
5:13 PM,40.6,30.7,68,30.10,10.0,NE,4.6,-,N/A,,Clear,40,2012-11-07 22:13:00
5:33 PM,39.2,30.6,71,30.10,10.0,NE,5.8,-,N/A,,Clear,50,2012-11-07 22:33:00
5:53 PM,38.1,30.9,75,30.10,10.0,ENE,4.6,-,N/A,,Clear,60,2012-11-07 22:53:00
6:13 PM,37.2,30.7,77,30.11,10.0,ENE,4.6,-,N/A,,Clear,60,2012-11-07 23:13:00
6:33 PM,36.1,30.6,80,30.12,10.0,ENE,3.5,-,N/A,,Clear,60,2012-11-07 23:33:00
6:53 PM,35.6,30.4,81,30.12,10.0,ENE,3.5,-,N/A,,Clear,60,2012-11-07 23:53:00
7:13 PM,34.9,30.2,83,30.13,10.0,ENE,3.5,-,N/A,,Clear,60,2012-11-08 00:13:00
7:33 PM,34.2,30.0,85,30.13,10.0,Calm,Calm,-,N/A,,Clear,0,2012-11-08 00:33:00
7:53 PM,33.1,30.0,89,30.13,10.0,Calm,Calm,-,N/A,,Clear,0,2012-11-08 00:53:00
8:13 PM,32.4,29.8,90,30.13,10.0,Calm,Calm,-,N/A,,Clear,0,2012-11-08 01:13:00
8:33 PM,31.3,30.0,95,30.13,10.0,Calm,Calm,-,N/A,,Clear,0,2012-11-08 01:33:00
8:53 PM,31.6,30.4,95,30.14,10.0,Calm,Calm,-,N/A,,Clear,0,2012-11-08 01:53:00
9:13 PM,29.5,29.5,100,30.14,10.0,Calm,Calm,-,N/A,,Clear,0,2012-11-08 02:13:00
9:33 PM,28.6,28.6,100,30.15,10.0,WNW,3.5,-,N/A,,Clear,300,2012-11-08 02:33:00
9:53 PM,28.8,28.8,100,30.15,10.0,Calm,Calm,-,N/A,,Clear,0,2012-11-08 02:53:00
10:13 PM,28.4,28.4,100,30.15,10.0,Calm,Calm,-,N/A,,Clear,0,2012-11-08 03:13:00
10:33 PM,28.0,28.0,100,30.15,7.0,Calm,Calm,-,N/A,,Clear,0,2012-11-08 03:33:00
10:53 PM,27.3,27.3,100,30.15,5.0,Calm,Calm,-,N/A,,Clear,0,2012-11-08 03:53:00
11:13 PM,26.6,26.6,100,30.15,5.0,Calm,Calm,-,N/A,,Clear,0,2012-11-08 04:13:00
11:33 PM,27.0,27.0,100,30.15,7.0,Calm,Calm,-,N/A,,Clear,0,2012-11-08 04:33:00
11:53 PM,26.1,26.1,100,30.15,7.0,Calm,Calm,-,N/A,,Clear,0,2012-11-08 04:53:00